PWSweather.com
Personal Weather Stations
Station Observations
KVAGLENALL
West Henrico, Glen Allen, VA 23060-6503

West HenricoGlen Allen, VA 23060-6503

Lat: 37.6554, Lon: -77.5693

Elevation: 273

Station Type: Davis Vantage Pro II

Latest ConditionsUpdated 7:00:18 PM EDT Wednesday, Oct 16, 2019
Currently Today's Max Today's Min Today's Average
Temperature 56.2°F13.4°C 60.1°F15.6°C 55.4°F13.0°C 58.1°F14.5°C
Dew Point 55.1°F12.8°C 59.0°F15.0°C 54.3°F12.4°C 56.8°F13.8°C
Winds Calm Calm 4.0 mph -6.4 kmh - - 1.0 mph 1.6 kmh
Wind Gusts 2.0 mph3.2 kmh 10.1 mph16.3 kmh - -
Humidity 96% 97% 91% 95%
Pressure 29.57 in1001.4 mb 30.02 in1016.6 mb 29.55 in1000.7 mb -
Hour Temp Dew Point Humidity Winds Wind Gusts Pressure Precip Precip Rate Daily Precip Total
07:00 PM 56.2°F13.4°C 55.1°F12.8°C 96% Calm Calm 2.0 mph3.2 kmh 29.57 in1001.4 mb 0.00 in0.0 mm 0.00 in0.0 mm 0.86 in21.8 mm
06:00 PM 58.9°F14.9°C 57.2°F14.0°C 94% Calm Calm 2.0 mph3.2 kmh 29.55 in1000.7 mb 0.00 in0.0 mm 0.00 in0.0 mm 0.86 in21.8 mm
05:00 PM 59.6°F15.3°C 58.2°F14.6°C 95% 1.0 mph SSE1.6 kmh SSE 3.0 mph4.8 kmh 29.55 in1000.7 mb 0.05 in1.3 mm 0.00 in0.0 mm 0.86 in21.8 mm
04:00 PM 58.7°F14.8°C 57.0°F13.9°C 94% 4.0 mph WNW6.4 kmh WNW 8.1 mph13.0 kmh 29.55 in1000.7 mb 0.07 in1.8 mm 0.00 in0.0 mm 0.86 in21.8 mm
03:00 PM 56.3°F13.5°C 55.4°F13.0°C 97% Calm Calm 2.0 mph3.2 kmh 29.56 in1001.0 mb 0.21 in5.3 mm 0.00 in0.0 mm 0.86 in21.8 mm
02:00 PM 55.4°F13.0°C 54.5°F12.5°C 97% Calm Calm 1.0 mph1.6 kmh 29.58 in1001.7 mb 0.61 in15.5 mm 0.00 in0.0 mm 0.86 in21.8 mm
01:00 PM 57.3°F14.1°C 56.2°F13.4°C 96% Calm Calm 10.1 mph16.3 kmh 29.63 in1003.4 mb 0.49 in12.4 mm 0.00 in0.0 mm 0.74 in18.8 mm
12:00 PM 59.3°F15.2°C 58.5°F14.7°C 97% Calm Calm -- 29.64 in1003.7 mb 0.36 in9.1 mm 0.00 in0.0 mm 0.61 in15.5 mm
11:00 AM 58.2°F14.6°C 57.4°F14.1°C 97% Calm Calm 2.0 mph3.2 kmh 29.70 in1005.8 mb 0.61 in15.5 mm 0.00 in0.0 mm 0.61 in15.5 mm
10:00 AM 58.7°F14.8°C 57.3°F14.1°C 95% Calm Calm -- 29.76 in1007.8 mb 0.34 in8.6 mm 0.00 in0.0 mm 0.34 in8.6 mm
09:00 AM 59.4°F15.2°C 58.3°F14.6°C 96% 1.0 mph SSE1.6 kmh SSE 2.0 mph3.2 kmh 29.80 in1009.1 mb 0.13 in3.3 mm 0.00 in0.0 mm 0.13 in3.3 mm
08:00 AM 60.1°F15.6°C 59.0°F15.0°C 96% 1.0 mph SSW1.6 kmh SSW 2.0 mph3.2 kmh 29.85 in1010.8 mb 0.02 in0.5 mm 0.00 in0.0 mm 0.02 in0.5 mm
07:00 AM 59.1°F15.1°C 57.7°F14.3°C 95% 1.0 mph SSE1.6 kmh SSE 6.1 mph9.8 kmh 29.88 in1011.9 mb 0.00 in0.0 mm 0.00 in0.0 mm 0.00 in0.0 mm
06:00 AM 58.7°F14.8°C 57.3°F14.1°C 95% 3.0 mph SSW4.8 kmh SSW 5.1 mph8.2 kmh 29.89 in1012.2 mb 0.00 in0.0 mm 0.00 in0.0 mm 0.00 in0.0 mm
05:00 AM 58.0°F14.4°C 56.9°F13.8°C 96% 2.0 mph S3.2 kmh S 9.1 mph14.6 kmh 29.90 in1012.5 mb 0.00 in0.0 mm 0.00 in0.0 mm 0.00 in0.0 mm
04:00 AM 58.5°F14.7°C 56.8°F13.8°C 94% 4.0 mph SE6.4 kmh SE 7.1 mph11.4 kmh 29.93 in1013.5 mb 0.00 in0.0 mm 0.00 in0.0 mm 0.00 in0.0 mm
03:00 AM 58.6°F14.8°C 57.5°F14.2°C 96% 2.0 mph S3.2 kmh S 5.1 mph8.2 kmh 29.95 in1014.2 mb 0.00 in0.0 mm 0.00 in0.0 mm 0.00 in0.0 mm
02:00 AM 57.3°F14.1°C 56.2°F13.4°C 96% 1.0 mph SE1.6 kmh SE 2.0 mph3.2 kmh 29.97 in1014.9 mb 0.00 in0.0 mm 0.00 in0.0 mm 0.00 in0.0 mm
01:00 AM 56.0°F13.3°C 54.3°F12.4°C 94% Calm Calm 1.0 mph1.6 kmh 29.99 in1015.6 mb 0.00 in0.0 mm 0.00 in0.0 mm 0.00 in0.0 mm
12:00 AM 58.3°F14.6°C 55.7°F13.2°C 91% Calm Calm 4.0 mph6.4 kmh 30.02 in1016.6 mb 0.00 in0.0 mm 0.00 in0.0 mm 0.00 in0.0 mm